sensor_id;sensor_type;location;lat;lon;timestamp;temperature;humidity
16980;DHT22;42288;52.182;21.156;2023-07-29T00:00:38;17.40;99.90
16980;DHT22;42288;52.182;21.156;2023-07-29T00:03:05;17.40;99.90
16980;DHT22;42288;52.182;21.156;2023-07-29T00:05:30;17.40;99.90
16980;DHT22;42288;52.182;21.156;2023-07-29T00:07:56;17.40;99.90
16980;DHT22;42288;52.182;21.156;2023-07-29T00:10:22;17.30;99.90
16980;DHT22;42288;52.182;21.156;2023-07-29T00:12:47;17.30;99.90
16980;DHT22;42288;52.182;21.156;2023-07-29T00:15:13;17.30;99.90
16980;DHT22;42288;52.182;21.156;2023-07-29T00:17:39;17.30;99.90
16980;DHT22;42288;52.182;21.156;2023-07-29T00:20:06;17.30;99.90
16980;DHT22;42288;52.182;21.156;2023-07-29T00:22:31;17.20;99.90
16980;DHT22;42288;52.182;21.156;2023-07-29T00:24:57;17.20;99.90
16980;DHT22;42288;52.182;21.156;2023-07-29T00:27:23;17.30;99.90
16980;DHT22;42288;52.182;21.156;2023-07-29T00:29:49;17.30;99.90
16980;DHT22;42288;52.182;21.156;2023-07-29T00:32:15;17.30;99.90
16980;DHT22;42288;52.182;21.156;2023-07-29T00:34:40;17.30;99.90
16980;DHT22;42288;52.182;21.156;2023-07-29T00:37:06;17.30;99.90
16980;DHT22;42288;52.182;21.156;2023-07-29T00:39:32;17.40;99.90
16980;DHT22;42288;52.182;21.156;2023-07-29T00:41:58;17.40;99.90
16980;DHT22;42288;52.182;21.156;2023-07-29T00:44:24;17.40;99.90
16980;DHT22;42288;52.182;21.156;2023-07-29T00:46:53;17.40;99.90
16980;DHT22;42288;52.182;21.156;2023-07-29T00:49:19;17.40;99.90
16980;DHT22;42288;52.182;21.156;2023-07-29T00:51:46;17.40;99.90
16980;DHT22;42288;52.182;21.156;2023-07-29T00:54:12;17.40;99.90
16980;DHT22;42288;52.182;21.156;2023-07-29T00:56:38;17.50;99.90
16980;DHT22;42288;52.182;21.156;2023-07-29T00:59:03;17.50;99.90
16980;DHT22;42288;52.182;21.156;2023-07-29T01:01:30;17.50;99.90
16980;DHT22;42288;52.182;21.156;2023-07-29T01:03:55;17.50;99.90
16980;DHT22;42288;52.182;21.156;2023-07-29T01:09:11;17.40;99.90
16980;DHT22;42288;52.182;21.156;2023-07-29T01:14:36;17.40;99.90
16980;DHT22;42288;52.182;21.156;2023-07-29T01:17:08;17.40;99.90
16980;DHT22;42288;52.182;21.156;2023-07-29T01:22:36;17.30;99.90
16980;DHT22;42288;52.182;21.156;2023-07-29T01:25:03;17.30;99.90
16980;DHT22;42288;52.182;21.156;2023-07-29T01:27:29;17.30;99.90
16980;DHT22;42288;52.182;21.156;2023-07-29T01:29:56;17.20;99.90
16980;DHT22;42288;52.182;21.156;2023-07-29T01:32:39;17.20;99.90
16980;DHT22;42288;52.182;21.156;2023-07-29T01:37:36;17.10;99.90
16980;DHT22;42288;52.182;21.156;2023-07-29T01:40:03;17.10;99.90
16980;DHT22;42288;52.182;21.156;2023-07-29T01:42:30;17.00;99.90
16980;DHT22;42288;52.182;21.156;2023-07-29T01:44:56;17.00;99.90
16980;DHT22;42288;52.182;21.156;2023-07-29T01:47:22;16.90;99.90
16980;DHT22;42288;52.182;21.156;2023-07-29T01:49:48;16.80;99.90
16980;DHT22;42288;52.182;21.156;2023-07-29T01:52:13;16.80;99.90
16980;DHT22;42288;52.182;21.156;2023-07-29T01:54:39;16.80;99.90
16980;DHT22;42288;52.182;21.156;2023-07-29T01:57:04;16.80;99.90
16980;DHT22;42288;52.182;21.156;2023-07-29T01:59:30;16.70;99.90
16980;DHT22;42288;52.182;21.156;2023-07-29T02:01:56;16.70;99.90
16980;DHT22;42288;52.182;21.156;2023-07-29T02:04:22;16.70;99.90
16980;DHT22;42288;52.182;21.156;2023-07-29T02:06:47;16.60;99.90
16980;DHT22;42288;52.182;21.156;2023-07-29T02:09:13;16.60;99.90
16980;DHT22;42288;52.182;21.156;2023-07-29T02:11:38;16.50;99.90
16980;DHT22;42288;52.182;21.156;2023-07-29T02:14:04;16.50;99.90
16980;DHT22;42288;52.182;21.156;2023-07-29T02:16:29;16.50;99.90
16980;DHT22;42288;52.182;21.156;2023-07-29T02:18:55;16.40;99.90
16980;DHT22;42288;52.182;21.156;2023-07-29T02:21:21;16.30;99.90
16980;DHT22;42288;52.182;21.156;2023-07-29T02:23:46;16.30;99.90
16980;DHT22;42288;52.182;21.156;2023-07-29T02:26:12;16.30;99.90
16980;DHT22;42288;52.182;21.156;2023-07-29T02:28:37;16.30;99.90
16980;DHT22;42288;52.182;21.156;2023-07-29T02:31:23;16.30;99.90
16980;DHT22;42288;52.182;21.156;2023-07-29T02:33:49;16.30;99.90
16980;DHT22;42288;52.182;21.156;2023-07-29T02:36:15;16.30;99.90
16980;DHT22;42288;52.182;21.156;2023-07-29T02:38:41;16.30;99.90
16980;DHT22;42288;52.182;21.156;2023-07-29T02:41:07;16.20;99.90
16980;DHT22;42288;52.182;21.156;2023-07-29T02:43:35;16.20;99.90
16980;DHT22;42288;52.182;21.156;2023-07-29T02:46:01;16.10;99.90
16980;DHT22;42288;52.182;21.156;2023-07-29T02:48:27;16.00;99.90
16980;DHT22;42288;52.182;21.156;2023-07-29T02:50:53;15.90;99.90
16980;DHT22;42288;52.182;21.156;2023-07-29T02:53:19;15.90;99.90
16980;DHT22;42288;52.182;21.156;2023-07-29T02:55:45;15.80;99.90
16980;DHT22;42288;52.182;21.156;2023-07-29T02:58:11;15.80;99.90
16980;DHT22;42288;52.182;21.156;2023-07-29T03:00:36;15.70;99.90
16980;DHT22;42288;52.182;21.156;2023-07-29T03:03:02;15.70;99.90
16980;DHT22;42288;52.182;21.156;2023-07-29T03:05:27;15.70;99.90
16980;DHT22;42288;52.182;21.156;2023-07-29T03:07:53;15.70;99.90
16980;DHT22;42288;52.182;21.156;2023-07-29T03:10:19;15.70;99.90
16980;DHT22;42288;52.182;21.156;2023-07-29T03:12:44;15.60;99.90
16980;DHT22;42288;52.182;21.156;2023-07-29T03:15:11;15.50;99.90
16980;DHT22;42288;52.182;21.156;2023-07-29T03:17:36;15.50;99.90
16980;DHT22;42288;52.182;21.156;2023-07-29T03:20:02;15.50;99.90
16980;DHT22;42288;52.182;21.156;2023-07-29T03:22:28;15.40;99.90
16980;DHT22;42288;52.182;21.156;2023-07-29T03:24:53;15.50;99.90
16980;DHT22;42288;52.182;21.156;2023-07-29T03:27:19;15.50;99.90
16980;DHT22;42288;52.182;21.156;2023-07-29T03:29:44;15.40;99.90
16980;DHT22;42288;52.182;21.156;2023-07-29T03:32:11;15.40;99.90
16980;DHT22;42288;52.182;21.156;2023-07-29T03:34:36;15.30;99.90
16980;DHT22;42288;52.182;21.156;2023-07-29T03:37:02;15.30;99.90
16980;DHT22;42288;52.182;21.156;2023-07-29T03:39:28;15.30;99.90
16980;DHT22;42288;52.182;21.156;2023-07-29T03:41:53;15.30;99.90
16980;DHT22;42288;52.182;21.156;2023-07-29T03:44:19;15.30;99.90
16980;DHT22;42288;52.182;21.156;2023-07-29T03:46:45;15.30;99.90
16980;DHT22;42288;52.182;21.156;2023-07-29T03:49:10;15.30;99.90
16980;DHT22;42288;52.182;21.156;2023-07-29T03:51:36;15.30;99.90
16980;DHT22;42288;52.182;21.156;2023-07-29T03:54:02;15.40;99.90
16980;DHT22;42288;52.182;21.156;2023-07-29T03:56:27;15.40;99.90
16980;DHT22;42288;52.182;21.156;2023-07-29T03:58:53;15.40;99.90
16980;DHT22;42288;52.182;21.156;2023-07-29T04:01:19;15.50;99.90
16980;DHT22;42288;52.182;21.156;2023-07-29T04:03:45;15.50;99.90
16980;DHT22;42288;52.182;21.156;2023-07-29T04:06:14;15.50;99.90
16980;DHT22;42288;52.182;21.156;2023-07-29T04:08:39;15.60;99.90
16980;DHT22;42288;52.182;21.156;2023-07-29T04:11:06;15.60;99.90
16980;DHT22;42288;52.182;21.156;2023-07-29T04:13:31;15.70;99.90
16980;DHT22;42288;52.182;21.156;2023-07-29T04:15:57;15.70;99.90
16980;DHT22;42288;52.182;21.156;2023-07-29T04:18:23;15.80;99.90
16980;DHT22;42288;52.182;21.156;2023-07-29T04:20:48;15.90;99.90
16980;DHT22;42288;52.182;21.156;2023-07-29T04:23:14;15.90;99.90
16980;DHT22;42288;52.182;21.156;2023-07-29T04:25:39;16.00;99.90
16980;DHT22;42288;52.182;21.156;2023-07-29T04:28:05;16.10;99.90
16980;DHT22;42288;52.182;21.156;2023-07-29T04:30:31;16.30;99.90
16980;DHT22;42288;52.182;21.156;2023-07-29T04:32:56;16.30;99.90
16980;DHT22;42288;52.182;21.156;2023-07-29T04:35:22;16.50;99.90
16980;DHT22;42288;52.182;21.156;2023-07-29T04:37:48;16.60;99.90
16980;DHT22;42288;52.182;21.156;2023-07-29T04:40:13;16.70;99.90
16980;DHT22;42288;52.182;21.156;2023-07-29T04:42:39;16.80;99.90
16980;DHT22;42288;52.182;21.156;2023-07-29T04:45:05;16.80;99.90
16980;DHT22;42288;52.182;21.156;2023-07-29T04:47:31;17.00;99.90
16980;DHT22;42288;52.182;21.156;2023-07-29T04:49:57;17.10;99.90
16980;DHT22;42288;52.182;21.156;2023-07-29T04:52:22;17.20;99.90
16980;DHT22;42288;52.182;21.156;2023-07-29T04:54:48;17.40;99.90
16980;DHT22;42288;52.182;21.156;2023-07-29T04:57:13;17.50;99.90
16980;DHT22;42288;52.182;21.156;2023-07-29T04:59:39;17.50;99.90
16980;DHT22;42288;52.182;21.156;2023-07-29T05:02:05;17.50;99.90
16980;DHT22;42288;52.182;21.156;2023-07-29T05:04:30;17.60;99.90
16980;DHT22;42288;52.182;21.156;2023-07-29T05:06:56;17.70;99.90
16980;DHT22;42288;52.182;21.156;2023-07-29T05:09:21;17.80;99.90
16980;DHT22;42288;52.182;21.156;2023-07-29T05:11:47;17.90;99.90
16980;DHT22;42288;52.182;21.156;2023-07-29T05:14:15;18.00;99.90
16980;DHT22;42288;52.182;21.156;2023-07-29T05:16:41;18.10;99.90
16980;DHT22;42288;52.182;21.156;2023-07-29T05:19:06;18.10;99.90
16980;DHT22;42288;52.182;21.156;2023-07-29T05:21:32;18.30;99.90
16980;DHT22;42288;52.182;21.156;2023-07-29T05:23:58;18.40;99.90
16980;DHT22;42288;52.182;21.156;2023-07-29T05:26:23;18.50;99.90
16980;DHT22;42288;52.182;21.156;2023-07-29T05:28:49;18.50;99.90
16980;DHT22;42288;52.182;21.156;2023-07-29T05:31:15;18.60;99.90
16980;DHT22;42288;52.182;21.156;2023-07-29T05:33:40;18.60;99.90
16980;DHT22;42288;52.182;21.156;2023-07-29T05:36:06;18.70;99.90
16980;DHT22;42288;52.182;21.156;2023-07-29T05:38:31;18.70;99.90
16980;DHT22;42288;52.182;21.156;2023-07-29T05:40:57;18.60;99.90
16980;DHT22;42288;52.182;21.156;2023-07-29T05:43:24;18.60;99.90
16980;DHT22;42288;52.182;21.156;2023-07-29T05:45:50;18.70;99.90
16980;DHT22;42288;52.182;21.156;2023-07-29T05:48:16;18.80;99.90
16980;DHT22;42288;52.182;21.156;2023-07-29T05:50:42;18.90;99.90
16980;DHT22;42288;52.182;21.156;2023-07-29T05:53:07;19.00;99.90
16980;DHT22;42288;52.182;21.156;2023-07-29T05:55:33;19.10;99.90
16980;DHT22;42288;52.182;21.156;2023-07-29T05:57:59;19.10;99.90
16980;DHT22;42288;52.182;21.156;2023-07-29T06:00:24;19.10;99.90
16980;DHT22;42288;52.182;21.156;2023-07-29T06:02:50;19.30;99.90
16980;DHT22;42288;52.182;21.156;2023-07-29T06:05:16;19.50;99.90
16980;DHT22;42288;52.182;21.156;2023-07-29T06:07:41;19.50;99.90
16980;DHT22;42288;52.182;21.156;2023-07-29T06:10:14;19.50;99.90
16980;DHT22;42288;52.182;21.156;2023-07-29T06:12:43;19.50;99.90
16980;DHT22;42288;52.182;21.156;2023-07-29T06:15:09;19.50;99.90
16980;DHT22;42288;52.182;21.156;2023-07-29T06:17:34;19.50;99.90
16980;DHT22;42288;52.182;21.156;2023-07-29T06:20:00;19.50;99.90
16980;DHT22;42288;52.182;21.156;2023-07-29T06:22:25;19.50;99.90
16980;DHT22;42288;52.182;21.156;2023-07-29T06:24:51;19.50;99.90
16980;DHT22;42288;52.182;21.156;2023-07-29T06:27:17;19.60;99.90
16980;DHT22;42288;52.182;21.156;2023-07-29T06:29:42;19.60;99.90
16980;DHT22;42288;52.182;21.156;2023-07-29T06:32:08;19.60;99.90
16980;DHT22;42288;52.182;21.156;2023-07-29T06:34:33;19.60;99.90
16980;DHT22;42288;52.182;21.156;2023-07-29T06:36:59;19.60;99.90
16980;DHT22;42288;52.182;21.156;2023-07-29T06:39:25;19.50;99.90
16980;DHT22;42288;52.182;21.156;2023-07-29T06:41:50;19.40;99.90
16980;DHT22;42288;52.182;21.156;2023-07-29T06:44:16;19.50;99.90
16980;DHT22;42288;52.182;21.156;2023-07-29T06:46:41;19.60;99.90
16980;DHT22;42288;52.182;21.156;2023-07-29T06:49:07;19.70;99.90
16980;DHT22;42288;52.182;21.156;2023-07-29T06:51:32;19.70;99.90
16980;DHT22;42288;52.182;21.156;2023-07-29T06:54:01;19.90;99.90
16980;DHT22;42288;52.182;21.156;2023-07-29T06:56:26;20.00;99.90
16980;DHT22;42288;52.182;21.156;2023-07-29T06:58:52;20.10;99.90
16980;DHT22;42288;52.182;21.156;2023-07-29T07:01:18;20.30;99.90
16980;DHT22;42288;52.182;21.156;2023-07-29T07:03:43;20.20;99.90
16980;DHT22;42288;52.182;21.156;2023-07-29T07:06:09;20.10;99.90
16980;DHT22;42288;52.182;21.156;2023-07-29T07:08:34;20.10;99.90
16980;DHT22;42288;52.182;21.156;2023-07-29T07:11:00;20.10;99.90
16980;DHT22;42288;52.182;21.156;2023-07-29T07:13:26;20.30;99.90
16980;DHT22;42288;52.182;21.156;2023-07-29T07:15:54;20.40;99.90
16980;DHT22;42288;52.182;21.156;2023-07-29T07:18:20;20.40;99.90
16980;DHT22;42288;52.182;21.156;2023-07-29T07:20:49;20.50;99.90
16980;DHT22;42288;52.182;21.156;2023-07-29T07:23:15;20.50;99.90
16980;DHT22;42288;52.182;21.156;2023-07-29T07:25:41;20.60;99.90
16980;DHT22;42288;52.182;21.156;2023-07-29T07:28:08;20.70;99.90
16980;DHT22;42288;52.182;21.156;2023-07-29T07:30:33;20.60;99.90
16980;DHT22;42288;52.182;21.156;2023-07-29T07:32:59;20.60;99.90
16980;DHT22;42288;52.182;21.156;2023-07-29T07:35:24;20.80;99.90
16980;DHT22;42288;52.182;21.156;2023-07-29T07:37:50;20.90;99.90
16980;DHT22;42288;52.182;21.156;2023-07-29T07:40:16;21.00;99.90
16980;DHT22;42288;52.182;21.156;2023-07-29T07:42:41;21.10;99.90
16980;DHT22;42288;52.182;21.156;2023-07-29T07:45:07;21.30;99.90
16980;DHT22;42288;52.182;21.156;2023-07-29T07:47:32;21.30;99.90
16980;DHT22;42288;52.182;21.156;2023-07-29T07:49:58;21.40;99.90
16980;DHT22;42288;52.182;21.156;2023-07-29T07:52:23;21.50;99.90
16980;DHT22;42288;52.182;21.156;2023-07-29T07:54:53;21.40;99.90
16980;DHT22;42288;52.182;21.156;2023-07-29T07:57:20;21.50;99.90
16980;DHT22;42288;52.182;21.156;2023-07-29T07:59:46;21.60;99.90
16980;DHT22;42288;52.182;21.156;2023-07-29T08:02:12;21.70;99.90
16980;DHT22;42288;52.182;21.156;2023-07-29T08:04:37;21.80;99.90
16980;DHT22;42288;52.182;21.156;2023-07-29T08:07:03;21.90;99.90
16980;DHT22;42288;52.182;21.156;2023-07-29T08:09:28;21.90;99.90
16980;DHT22;42288;52.182;21.156;2023-07-29T08:11:54;21.80;99.90
16980;DHT22;42288;52.182;21.156;2023-07-29T08:14:20;21.90;99.90
16980;DHT22;42288;52.182;21.156;2023-07-29T08:16:45;21.80;99.90
16980;DHT22;42288;52.182;21.156;2023-07-29T08:19:11;21.60;99.90
16980;DHT22;42288;52.182;21.156;2023-07-29T08:21:36;21.70;99.90
16980;DHT22;42288;52.182;21.156;2023-07-29T08:24:02;21.90;99.90
16980;DHT22;42288;52.182;21.156;2023-07-29T08:26:29;22.00;99.90
16980;DHT22;42288;52.182;21.156;2023-07-29T08:28:55;22.00;99.90
16980;DHT22;42288;52.182;21.156;2023-07-29T08:31:20;22.20;99.90
16980;DHT22;42288;52.182;21.156;2023-07-29T08:33:46;22.30;99.90
16980;DHT22;42288;52.182;21.156;2023-07-29T08:36:11;22.00;99.90
16980;DHT22;42288;52.182;21.156;2023-07-29T08:38:37;22.00;99.90
16980;DHT22;42288;52.182;21.156;2023-07-29T08:41:14;21.90;99.90
16980;DHT22;42288;52.182;21.156;2023-07-29T08:43:52;22.00;99.90
16980;DHT22;42288;52.182;21.156;2023-07-29T08:46:21;22.20;99.90
16980;DHT22;42288;52.182;21.156;2023-07-29T08:48:47;22.10;99.90
16980;DHT22;42288;52.182;21.156;2023-07-29T08:51:13;22.20;99.90
16980;DHT22;42288;52.182;21.156;2023-07-29T08:53:40;22.40;99.90
16980;DHT22;42288;52.182;21.156;2023-07-29T08:56:06;22.50;99.90
16980;DHT22;42288;52.182;21.156;2023-07-29T08:58:33;22.40;99.90
16980;DHT22;42288;52.182;21.156;2023-07-29T09:00:59;22.30;99.90
16980;DHT22;42288;52.182;21.156;2023-07-29T09:03:25;22.50;99.90
16980;DHT22;42288;52.182;21.156;2023-07-29T09:05:51;22.40;99.90
16980;DHT22;42288;52.182;21.156;2023-07-29T09:08:17;22.50;99.90
16980;DHT22;42288;52.182;21.156;2023-07-29T09:10:43;22.50;99.90
16980;DHT22;42288;52.182;21.156;2023-07-29T09:13:09;22.70;99.90
16980;DHT22;42288;52.182;21.156;2023-07-29T09:15:35;22.70;99.90
16980;DHT22;42288;52.182;21.156;2023-07-29T09:18:18;23.00;99.90
16980;DHT22;42288;52.182;21.156;2023-07-29T09:20:49;22.90;99.90
16980;DHT22;42288;52.182;21.156;2023-07-29T09:23:15;22.70;99.90
16980;DHT22;42288;52.182;21.156;2023-07-29T09:25:41;22.90;99.90
16980;DHT22;42288;52.182;21.156;2023-07-29T09:28:10;22.90;99.90
16980;DHT22;42288;52.182;21.156;2023-07-29T09:30:38;23.10;99.90
16980;DHT22;42288;52.182;21.156;2023-07-29T09:33:04;23.10;99.90
16980;DHT22;42288;52.182;21.156;2023-07-29T09:35:33;23.20;99.90
16980;DHT22;42288;52.182;21.156;2023-07-29T09:37:59;23.30;99.90
16980;DHT22;42288;52.182;21.156;2023-07-29T09:40:25;23.30;99.90
16980;DHT22;42288;52.182;21.156;2023-07-29T09:42:54;23.20;99.90
16980;DHT22;42288;52.182;21.156;2023-07-29T09:45:25;23.40;99.90
16980;DHT22;42288;52.182;21.156;2023-07-29T09:47:52;23.60;99.90
16980;DHT22;42288;52.182;21.156;2023-07-29T09:50:18;23.70;99.90
16980;DHT22;42288;52.182;21.156;2023-07-29T09:52:44;23.70;99.90
16980;DHT22;42288;52.182;21.156;2023-07-29T09:55:13;23.90;99.90
16980;DHT22;42288;52.182;21.156;2023-07-29T09:57:43;24.20;99.90
16980;DHT22;42288;52.182;21.156;2023-07-29T10:00:11;24.30;99.90
16980;DHT22;42288;52.182;21.156;2023-07-29T10:02:41;24.50;99.90
16980;DHT22;42288;52.182;21.156;2023-07-29T10:05:08;24.60;99.90
16980;DHT22;42288;52.182;21.156;2023-07-29T10:07:36;24.70;99.90
16980;DHT22;42288;52.182;21.156;2023-07-29T10:10:04;24.80;99.90
16980;DHT22;42288;52.182;21.156;2023-07-29T10:12:30;25.00;99.90
16980;DHT22;42288;52.182;21.156;2023-07-29T10:15:05;25.00;99.90
16980;DHT22;42288;52.182;21.156;2023-07-29T10:17:36;24.60;99.90
16980;DHT22;42288;52.182;21.156;2023-07-29T10:20:04;24.60;99.90
16980;DHT22;42288;52.182;21.156;2023-07-29T10:22:37;24.40;99.90
16980;DHT22;42288;52.182;21.156;2023-07-29T10:25:06;24.40;99.90
16980;DHT22;42288;52.182;21.156;2023-07-29T10:30:14;24.10;99.90
16980;DHT22;42288;52.182;21.156;2023-07-29T10:32:43;24.20;99.90
16980;DHT22;42288;52.182;21.156;2023-07-29T10:35:10;24.30;99.90
16980;DHT22;42288;52.182;21.156;2023-07-29T10:37:36;24.60;99.90
16980;DHT22;42288;52.182;21.156;2023-07-29T10:40:06;24.80;99.90
16980;DHT22;42288;52.182;21.156;2023-07-29T10:42:32;25.20;99.90
16980;DHT22;42288;52.182;21.156;2023-07-29T10:44:57;25.80;99.90
16980;DHT22;42288;52.182;21.156;2023-07-29T10:47:24;25.90;99.70
16980;DHT22;42288;52.182;21.156;2023-07-29T10:49:52;26.40;99.00
16980;DHT22;42288;52.182;21.156;2023-07-29T10:55:00;27.70;97.00
16980;DHT22;42288;52.182;21.156;2023-07-29T10:57:37;28.20;94.80
16980;DHT22;42288;52.182;21.156;2023-07-29T11:00:04;29.00;93.90
16980;DHT22;42288;52.182;21.156;2023-07-29T11:02:35;29.70;91.60
16980;DHT22;42288;52.182;21.156;2023-07-29T11:05:06;30.40;90.80
16980;DHT22;42288;52.182;21.156;2023-07-29T11:07:46;31.10;90.20
16980;DHT22;42288;52.182;21.156;2023-07-29T11:10:12;31.60;83.80
16980;DHT22;42288;52.182;21.156;2023-07-29T11:20:10;33.60;74.60
16980;DHT22;42288;52.182;21.156;2023-07-29T11:22:37;34.70;71.90
16980;DHT22;42288;52.182;21.156;2023-07-29T11:25:03;35.00;66.30
16980;DHT22;42288;52.182;21.156;2023-07-29T11:27:30;35.60;63.40
16980;DHT22;42288;52.182;21.156;2023-07-29T11:30:00;35.90;59.80
16980;DHT22;42288;52.182;21.156;2023-07-29T11:32:26;36.10;59.00
16980;DHT22;42288;52.182;21.156;2023-07-29T11:34:52;35.30;56.80
16980;DHT22;42288;52.182;21.156;2023-07-29T11:37:17;35.50;58.70
16980;DHT22;42288;52.182;21.156;2023-07-29T11:39:44;35.80;57.90
16980;DHT22;42288;52.182;21.156;2023-07-29T11:42:14;35.30;57.70
16980;DHT22;42288;52.182;21.156;2023-07-29T11:44:40;34.80;56.60
16980;DHT22;42288;52.182;21.156;2023-07-29T11:47:10;34.10;58.20
16980;DHT22;42288;52.182;21.156;2023-07-29T11:49:38;33.60;58.90
16980;DHT22;42288;52.182;21.156;2023-07-29T11:52:06;33.30;59.40
16980;DHT22;42288;52.182;21.156;2023-07-29T11:54:32;32.70;59.90
16980;DHT22;42288;52.182;21.156;2023-07-29T11:56:58;32.20;60.00
16980;DHT22;42288;52.182;21.156;2023-07-29T11:59:25;31.80;61.80
16980;DHT22;42288;52.182;21.156;2023-07-29T12:01:53;31.50;63.10
16980;DHT22;42288;52.182;21.156;2023-07-29T12:04:19;31.30;65.30
16980;DHT22;42288;52.182;21.156;2023-07-29T12:06:45;30.80;67.50
16980;DHT22;42288;52.182;21.156;2023-07-29T12:09:10;30.60;67.20
16980;DHT22;42288;52.182;21.156;2023-07-29T12:11:38;30.00;66.40
16980;DHT22;42288;52.182;21.156;2023-07-29T12:14:07;29.70;67.90
16980;DHT22;42288;52.182;21.156;2023-07-29T12:16:40;29.30;70.70
16980;DHT22;42288;52.182;21.156;2023-07-29T12:19:06;29.10;71.10
16980;DHT22;42288;52.182;21.156;2023-07-29T12:21:32;29.00;71.30
16980;DHT22;42288;52.182;21.156;2023-07-29T12:23:58;28.50;72.40
16980;DHT22;42288;52.182;21.156;2023-07-29T12:26:27;28.30;72.80
16980;DHT22;42288;52.182;21.156;2023-07-29T12:28:53;28.30;74.50
16980;DHT22;42288;52.182;21.156;2023-07-29T12:31:19;28.20;74.40
16980;DHT22;42288;52.182;21.156;2023-07-29T12:33:44;28.10;74.50
16980;DHT22;42288;52.182;21.156;2023-07-29T12:36:10;28.10;76.50
16980;DHT22;42288;52.182;21.156;2023-07-29T12:38:36;27.80;75.50
16980;DHT22;42288;52.182;21.156;2023-07-29T12:41:01;27.50;75.20
16980;DHT22;42288;52.182;21.156;2023-07-29T12:43:28;27.60;76.20
16980;DHT22;42288;52.182;21.156;2023-07-29T12:45:54;27.50;76.60
16980;DHT22;42288;52.182;21.156;2023-07-29T12:48:19;27.40;77.40
16980;DHT22;42288;52.182;21.156;2023-07-29T12:50:45;27.30;77.60
16980;DHT22;42288;52.182;21.156;2023-07-29T12:53:11;27.30;78.50
16980;DHT22;42288;52.182;21.156;2023-07-29T12:55:37;27.30;78.40
16980;DHT22;42288;52.182;21.156;2023-07-29T12:58:03;27.40;79.00
16980;DHT22;42288;52.182;21.156;2023-07-29T13:00:29;27.30;77.70
16980;DHT22;42288;52.182;21.156;2023-07-29T13:02:55;27.30;80.00
16980;DHT22;42288;52.182;21.156;2023-07-29T13:05:21;27.30;77.00
16980;DHT22;42288;52.182;21.156;2023-07-29T13:07:46;27.30;79.00
16980;DHT22;42288;52.182;21.156;2023-07-29T13:10:12;27.40;78.50
16980;DHT22;42288;52.182;21.156;2023-07-29T13:12:38;27.40;78.30
16980;DHT22;42288;52.182;21.156;2023-07-29T13:15:05;27.30;78.40
16980;DHT22;42288;52.182;21.156;2023-07-29T13:17:33;27.20;80.00
16980;DHT22;42288;52.182;21.156;2023-07-29T13:19:59;27.20;79.60
16980;DHT22;42288;52.182;21.156;2023-07-29T13:22:25;27.20;78.50
16980;DHT22;42288;52.182;21.156;2023-07-29T13:24:50;27.20;79.80
16980;DHT22;42288;52.182;21.156;2023-07-29T13:27:16;27.10;78.60
16980;DHT22;42288;52.182;21.156;2023-07-29T13:29:42;27.10;79.80
16980;DHT22;42288;52.182;21.156;2023-07-29T13:32:09;27.00;79.20
16980;DHT22;42288;52.182;21.156;2023-07-29T13:34:34;27.10;80.70
16980;DHT22;42288;52.182;21.156;2023-07-29T13:37:00;27.00;80.20
16980;DHT22;42288;52.182;21.156;2023-07-29T13:39:25;27.10;81.20
16980;DHT22;42288;52.182;21.156;2023-07-29T13:41:52;27.10;81.20
16980;DHT22;42288;52.182;21.156;2023-07-29T13:44:18;27.10;79.30
16980;DHT22;42288;52.182;21.156;2023-07-29T13:46:43;27.00;79.40
16980;DHT22;42288;52.182;21.156;2023-07-29T13:49:09;26.80;80.00
16980;DHT22;42288;52.182;21.156;2023-07-29T13:51:35;26.90;78.80
16980;DHT22;42288;52.182;21.156;2023-07-29T13:54:00;27.10;80.00
16980;DHT22;42288;52.182;21.156;2023-07-29T13:56:26;27.00;80.80
16980;DHT22;42288;52.182;21.156;2023-07-29T13:58:51;27.00;79.70
16980;DHT22;42288;52.182;21.156;2023-07-29T14:01:17;27.00;80.30
16980;DHT22;42288;52.182;21.156;2023-07-29T14:03:43;27.00;80.20
16980;DHT22;42288;52.182;21.156;2023-07-29T14:06:09;27.10;79.60
16980;DHT22;42288;52.182;21.156;2023-07-29T14:08:34;27.30;80.40
16980;DHT22;42288;52.182;21.156;2023-07-29T14:11:00;27.60;79.60
16980;DHT22;42288;52.182;21.156;2023-07-29T14:13:26;27.60;78.10
16980;DHT22;42288;52.182;21.156;2023-07-29T14:15:51;27.40;78.20
16980;DHT22;42288;52.182;21.156;2023-07-29T14:18:17;27.30;77.30
16980;DHT22;42288;52.182;21.156;2023-07-29T14:20:43;27.20;78.10
16980;DHT22;42288;52.182;21.156;2023-07-29T14:23:08;27.20;79.20
16980;DHT22;42288;52.182;21.156;2023-07-29T14:25:34;27.20;79.10
16980;DHT22;42288;52.182;21.156;2023-07-29T14:27:59;27.20;79.00
16980;DHT22;42288;52.182;21.156;2023-07-29T14:30:25;27.20;79.10
16980;DHT22;42288;52.182;21.156;2023-07-29T14:32:51;27.00;77.30
16980;DHT22;42288;52.182;21.156;2023-07-29T14:35:16;27.10;78.50
16980;DHT22;42288;52.182;21.156;2023-07-29T14:37:42;27.20;78.70
16980;DHT22;42288;52.182;21.156;2023-07-29T14:40:07;27.20;80.00
16980;DHT22;42288;52.182;21.156;2023-07-29T14:42:33;27.30;79.40
16980;DHT22;42288;52.182;21.156;2023-07-29T14:44:59;27.30;79.50
16980;DHT22;42288;52.182;21.156;2023-07-29T14:47:24;27.30;79.80
16980;DHT22;42288;52.182;21.156;2023-07-29T14:49:50;27.40;80.80
16980;DHT22;42288;52.182;21.156;2023-07-29T14:52:15;27.30;80.40
16980;DHT22;42288;52.182;21.156;2023-07-29T14:54:41;27.40;79.80
16980;DHT22;42288;52.182;21.156;2023-07-29T14:57:07;27.50;79.70
16980;DHT22;42288;52.182;21.156;2023-07-29T14:59:33;27.40;79.10
16980;DHT22;42288;52.182;21.156;2023-07-29T15:01:58;27.30;78.40
16980;DHT22;42288;52.182;21.156;2023-07-29T15:04:24;27.30;78.90
16980;DHT22;42288;52.182;21.156;2023-07-29T15:06:50;27.40;80.40
16980;DHT22;42288;52.182;21.156;2023-07-29T15:09:15;27.30;80.70
16980;DHT22;42288;52.182;21.156;2023-07-29T15:11:41;27.20;82.30
16980;DHT22;42288;52.182;21.156;2023-07-29T15:14:07;27.10;80.60
16980;DHT22;42288;52.182;21.156;2023-07-29T15:16:32;27.00;80.40
16980;DHT22;42288;52.182;21.156;2023-07-29T15:19:01;27.00;80.40
16980;DHT22;42288;52.182;21.156;2023-07-29T15:21:27;26.90;80.60
16980;DHT22;42288;52.182;21.156;2023-07-29T15:23:52;27.00;81.10
16980;DHT22;42288;52.182;21.156;2023-07-29T15:26:18;27.10;82.40
16980;DHT22;42288;52.182;21.156;2023-07-29T15:28:43;27.20;82.90
16980;DHT22;42288;52.182;21.156;2023-07-29T15:31:09;27.30;81.20
16980;DHT22;42288;52.182;21.156;2023-07-29T15:33:36;27.30;80.00